Time;durP1;ratioP1;P1;durP2;ratioP2;P2;SDS_P1;SDS_P2;PMS_P1;PMS_P2;Temp;Humidity;BMP_temperature;BMP_pressure;BME280_temperature;BME280_humidity;BME280_pressure;Samples;Min_cycle;Max_cycle;Signal;HPM_P1;HPM_P2
2024/01/27 00:01:01;;;;;;;20.88;2.92;;;3.00;99.90;;;;;;5072634;28;20520;-67
2024/01/27 00:03:27;;;;;;;19.30;3.53;;;3.00;99.90;;;;;;5082319;28;20064;-68
2024/01/27 00:05:52;;;;;;;39.53;5.55;;;3.00;99.90;;;;;;5078945;28;20028;-66
2024/01/27 00:08:18;;;;;;;37.92;5.45;;;3.00;99.90;;;;;;5080229;28;20025;-66
2024/01/27 00:10:45;;;;;;;19.13;3.50;;;3.00;99.90;;;;;;5079464;28;20040;-67
2024/01/27 00:13:11;;;;;;;32.92;4.43;;;3.10;99.90;;;;;;5080181;28;20111;-66
2024/01/27 00:15:37;;;;;;;15.57;2.92;;;3.10;99.90;;;;;;5085872;28;20560;-66
2024/01/27 00:18:02;;;;;;;31.23;4.53;;;3.10;99.90;;;;;;5072007;28;20040;-67
2024/01/27 00:20:28;;;;;;;22.42;4.22;;;3.10;99.90;;;;;;5069181;28;20276;-67
2024/01/27 00:22:53;;;;;;;24.00;4.05;;;3.10;99.90;;;;;;5067620;28;20094;-67
2024/01/27 00:25:19;;;;;;;19.00;4.40;;;3.10;99.90;;;;;;5068453;28;20025;-66
2024/01/27 00:27:45;;;;;;;15.30;3.03;;;3.10;99.90;;;;;;5067352;28;20048;-69
2024/01/27 00:30:11;;;;;;;26.08;4.30;;;3.10;99.90;;;;;;5067746;28;20109;-66
2024/01/27 00:32:37;;;;;;;31.58;4.60;;;3.10;99.90;;;;;;5068409;28;20488;-65
2024/01/27 00:35:03;;;;;;;15.57;3.25;;;3.10;99.90;;;;;;5067624;28;20043;-65
2024/01/27 00:37:29;;;;;;;20.42;3.90;;;3.10;99.90;;;;;;5076178;28;20130;-67
2024/01/27 00:39:54;;;;;;;25.60;4.05;;;3.20;99.90;;;;;;5068334;28;20768;-67
2024/01/27 00:42:23;;;;;;;16.20;3.83;;;3.20;99.90;;;;;;5066713;28;20036;-67
2024/01/27 00:44:50;;;;;;;17.27;3.22;;;3.20;99.90;;;;;;5072885;28;20039;-66
2024/01/27 00:47:16;;;;;;;26.63;4.03;;;3.20;99.90;;;;;;5067575;28;20056;-66
2024/01/27 00:49:41;;;;;;;15.45;3.70;;;3.10;99.90;;;;;;5071371;28;20063;-66
2024/01/27 00:52:07;;;;;;;24.27;3.60;;;3.10;99.90;;;;;;5072727;28;20036;-66
2024/01/27 00:54:32;;;;;;;24.45;4.50;;;3.10;99.90;;;;;;5074888;28;20071;-67
2024/01/27 00:56:58;;;;;;;25.40;4.93;;;3.10;99.90;;;;;;5062646;28;20087;-66
2024/01/27 00:59:23;;;;;;;18.33;4.07;;;3.10;99.90;;;;;;5068184;28;20468;-66
2024/01/27 01:01:49;;;;;;;23.45;4.35;;;3.10;99.90;;;;;;5067405;28;20086;-66
2024/01/27 01:04:15;;;;;;;25.48;6.63;;;3.10;99.90;;;;;;5067921;28;20047;-66
2024/01/27 01:06:41;;;;;;;16.05;3.08;;;3.10;99.90;;;;;;5068343;28;20051;-70
2024/01/27 01:09:06;;;;;;;20.55;4.22;;;3.10;99.90;;;;;;5067203;28;20118;-66
2024/01/27 01:11:32;;;;;;;19.00;3.58;;;3.00;99.90;;;;;;5062507;28;20068;-67
2024/01/27 01:13:57;;;;;;;18.38;3.63;;;3.00;99.90;;;;;;5067630;28;20059;-67
2024/01/27 01:16:23;;;;;;;25.17;4.32;;;3.00;99.90;;;;;;5067842;28;20048;-66
2024/01/27 01:18:48;;;;;;;27.90;5.40;;;3.00;99.90;;;;;;5067252;28;20063;-69
2024/01/27 01:21:14;;;;;;;21.60;4.18;;;3.00;99.90;;;;;;5067061;28;20062;-66
2024/01/27 01:23:40;;;;;;;26.50;3.97;;;3.10;99.90;;;;;;5067616;28;20421;-67
2024/01/27 01:26:06;;;;;;;18.08;3.95;;;3.00;99.90;;;;;;5064461;28;20048;-67
2024/01/27 01:28:32;;;;;;;20.98;4.40;;;3.00;99.90;;;;;;5067233;28;20576;-66
2024/01/27 01:30:57;;;;;;;24.20;3.65;;;3.00;99.90;;;;;;5066814;28;20029;-66
2024/01/27 01:33:23;;;;;;;23.70;3.00;;;3.00;99.90;;;;;;5064199;28;20036;-66
2024/01/27 01:35:49;;;;;;;12.98;3.50;;;3.00;99.90;;;;;;5067865;28;20044;-66
2024/01/27 01:38:14;;;;;;;20.35;3.55;;;3.10;99.90;;;;;;5071142;28;20036;-66
2024/01/27 01:40:40;;;;;;;25.77;4.30;;;3.00;99.90;;;;;;5068008;28;20492;-66
2024/01/27 01:43:12;;;;;;;31.92;4.82;;;3.10;99.90;;;;;;5066775;28;20039;-70
2024/01/27 01:45:37;;;;;;;30.48;3.60;;;3.10;99.90;;;;;;5064248;28;20036;-66
2024/01/27 01:48:04;;;;;;;23.48;5.15;;;3.00;99.90;;;;;;5068730;28;20040;-66
2024/01/27 01:50:30;;;;;;;37.28;4.90;;;3.10;99.90;;;;;;5063881;28;20047;-66
2024/01/27 01:52:56;;;;;;;18.52;4.35;;;3.10;99.90;;;;;;5060626;28;20041;-67
2024/01/27 01:55:22;;;;;;;25.95;5.22;;;3.10;99.90;;;;;;5067006;28;20461;-66
2024/01/27 01:57:48;;;;;;;29.13;5.20;;;3.10;99.90;;;;;;5069076;28;20115;-66
2024/01/27 02:00:14;;;;;;;22.40;4.07;;;3.00;99.90;;;;;;5068149;28;20032;-66
2024/01/27 02:02:42;;;;;;;24.20;3.90;;;3.00;99.90;;;;;;5066452;28;20102;-67
2024/01/27 02:05:09;;;;;;;18.10;4.28;;;3.10;99.90;;;;;;5065715;28;20068;-66
2024/01/27 02:07:35;;;;;;;23.02;4.00;;;3.00;99.90;;;;;;5067395;28;20040;-67
2024/01/27 02:10:02;;;;;;;23.85;4.20;;;3.10;99.90;;;;;;5067485;28;20041;-66
2024/01/27 02:12:27;;;;;;;25.52;4.18;;;3.10;99.90;;;;;;5062263;28;20044;-66
2024/01/27 02:14:53;;;;;;;26.08;4.38;;;3.10;99.90;;;;;;5068800;28;20020;-68
2024/01/27 02:17:18;;;;;;;16.20;4.00;;;3.00;99.90;;;;;;5068340;28;20110;-67
2024/01/27 02:19:44;;;;;;;21.98;5.28;;;3.00;99.90;;;;;;5062190;28;20043;-67
2024/01/27 02:22:09;;;;;;;25.10;5.65;;;3.00;99.90;;;;;;5060475;28;20060;-72
2024/01/27 02:24:35;;;;;;;27.80;4.53;;;3.00;99.90;;;;;;5061926;28;20064;-67
2024/01/27 02:27:00;;;;;;;21.13;4.68;;;2.90;99.90;;;;;;5062779;28;20854;-68
2024/01/27 02:29:27;;;;;;;18.88;4.22;;;3.00;99.90;;;;;;5057498;28;20701;-67
2024/01/27 02:31:53;;;;;;;21.98;3.92;;;3.00;99.90;;;;;;5064403;28;20057;-68
2024/01/27 02:34:19;;;;;;;18.98;4.10;;;2.90;99.90;;;;;;5071328;28;20048;-68
2024/01/27 02:36:44;;;;;;;22.13;4.72;;;2.90;99.90;;;;;;5067541;28;20079;-68
2024/01/27 02:39:10;;;;;;;27.60;6.43;;;2.90;99.90;;;;;;5069860;28;20032;-67
2024/01/27 02:41:38;;;;;;;35.30;5.55;;;2.90;99.90;;;;;;5066401;28;20040;-67
2024/01/27 02:44:05;;;;;;;27.88;4.75;;;2.90;99.90;;;;;;5068887;28;20045;-68
2024/01/27 02:46:30;;;;;;;20.67;3.50;;;2.90;99.90;;;;;;5068023;28;20160;-66
2024/01/27 02:48:56;;;;;;;22.60;4.57;;;2.90;99.90;;;;;;5067347;28;20520;-67
2024/01/27 02:51:22;;;;;;;16.45;3.67;;;2.80;99.90;;;;;;5069856;28;20090;-67
2024/01/27 02:53:47;;;;;;;15.70;3.72;;;2.80;99.90;;;;;;5059809;28;20358;-68
2024/01/27 02:56:13;;;;;;;27.15;3.83;;;2.80;99.90;;;;;;5068952;28;20067;-66
2024/01/27 02:58:40;;;;;;;18.95;3.75;;;2.80;99.90;;;;;;5062914;28;20029;-67
2024/01/27 03:01:06;;;;;;;25.48;4.65;;;2.80;99.90;;;;;;5059946;28;20090;-67
2024/01/27 03:03:31;;;;;;;21.65;4.32;;;2.80;99.90;;;;;;5064267;28;20439;-67
2024/01/27 03:05:57;;;;;;;26.10;4.60;;;2.80;99.90;;;;;;5066504;28;20460;-67
2024/01/27 03:08:22;;;;;;;20.08;4.82;;;2.80;99.90;;;;;;5064652;28;20451;-68
2024/01/27 03:10:48;;;;;;;23.85;4.80;;;2.70;99.90;;;;;;5067606;28;20028;-67
2024/01/27 03:13:14;;;;;;;23.92;3.88;;;2.70;99.90;;;;;;5065948;28;20090;-67
2024/01/27 03:15:39;;;;;;;14.15;3.88;;;2.70;99.90;;;;;;5063891;28;20041;-68
2024/01/27 03:18:05;;;;;;;18.17;3.72;;;2.70;99.90;;;;;;5060823;28;20466;-68
2024/01/27 03:20:33;;;;;;;24.20;4.38;;;2.60;99.90;;;;;;5065589;28;20041;-67
2024/01/27 03:22:59;;;;;;;19.58;3.60;;;2.60;99.90;;;;;;5057009;28;20174;-67
2024/01/27 03:25:25;;;;;;;25.95;4.40;;;2.60;99.90;;;;;;5066589;28;20182;-68
2024/01/27 03:27:51;;;;;;;14.10;4.72;;;2.60;99.90;;;;;;5064033;28;20619;-68
2024/01/27 03:30:17;;;;;;;15.80;3.75;;;2.50;99.90;;;;;;5062478;28;20041;-68
2024/01/27 03:32:43;;;;;;;25.58;3.67;;;2.50;99.90;;;;;;5062130;28;20043;-67
2024/01/27 03:35:08;;;;;;;20.55;3.40;;;2.50;99.90;;;;;;5068888;28;20063;-66
2024/01/27 03:37:34;;;;;;;24.10;4.20;;;2.40;99.90;;;;;;5066757;28;20094;-67
2024/01/27 03:40:01;;;;;;;24.98;4.25;;;2.40;99.90;;;;;;5063048;28;20048;-67
2024/01/27 03:42:26;;;;;;;14.10;4.55;;;2.40;99.90;;;;;;5064801;28;20173;-67
2024/01/27 03:44:52;;;;;;;19.25;3.95;;;2.40;99.90;;;;;;5064711;28;20480;-67
2024/01/27 03:47:18;;;;;;;16.50;3.88;;;2.40;99.90;;;;;;5061189;28;20129;-68
2024/01/27 03:49:43;;;;;;;15.55;3.97;;;2.30;99.90;;;;;;5064246;28;20044;-68
2024/01/27 03:52:10;;;;;;;15.90;4.30;;;2.30;99.90;;;;;;5065917;28;20040;-67
2024/01/27 03:54:37;;;;;;;20.63;4.95;;;2.30;99.90;;;;;;5069371;28;20045;-67
2024/01/27 03:57:03;;;;;;;21.00;4.15;;;2.30;99.90;;;;;;5069471;28;20055;-67
2024/01/27 03:59:28;;;;;;;32.28;4.30;;;2.30;99.90;;;;;;5071278;28;20055;-67
2024/01/27 04:01:54;;;;;;;15.75;4.13;;;2.30;99.90;;;;;;5068209;28;20044;-68
2024/01/27 04:04:20;;;;;;;29.40;4.63;;;2.20;99.90;;;;;;5068544;28;20542;-65
2024/01/27 04:06:45;;;;;;;21.27;4.28;;;2.20;99.90;;;;;;5067875;28;20037;-67
2024/01/27 04:09:11;;;;;;;19.55;3.58;;;2.20;99.90;;;;;;5069515;28;20432;-68
2024/01/27 04:11:37;;;;;;;19.38;3.50;;;2.10;99.90;;;;;;5068659;28;20124;-67
2024/01/27 04:14:04;;;;;;;15.13;3.60;;;2.10;99.90;;;;;;5068592;28;20041;-67
2024/01/27 04:16:29;;;;;;;16.23;3.35;;;2.10;99.90;;;;;;5066904;28;20040;-67
2024/01/27 04:18:55;;;;;;;22.45;3.30;;;2.10;99.90;;;;;;5068816;28;20813;-67
2024/01/27 04:21:21;;;;;;;19.10;3.35;;;2.00;99.90;;;;;;5069738;28;20078;-68
2024/01/27 04:23:46;;;;;;;27.55;3.90;;;2.00;99.90;;;;;;5064429;28;20098;-67
2024/01/27 04:26:12;;;;;;;17.90;3.47;;;2.00;99.90;;;;;;5067704;28;20068;-67
2024/01/27 04:28:38;;;;;;;17.20;3.90;;;2.00;99.90;;;;;;5062706;28;20044;-68
2024/01/27 04:31:03;;;;;;;19.65;3.22;;;1.90;99.90;;;;;;5066814;28;20062;-67
2024/01/27 04:33:29;;;;;;;20.08;4.45;;;1.90;99.90;;;;;;5068020;28;20033;-67
2024/01/27 04:35:55;;;;;;;25.15;3.47;;;1.90;99.90;;;;;;5059071;28;20499;-67
2024/01/27 04:38:20;;;;;;;22.52;3.65;;;1.90;99.90;;;;;;5066592;28;20130;-68
2024/01/27 04:40:46;;;;;;;17.23;3.47;;;1.80;99.90;;;;;;5070482;28;20039;-68
2024/01/27 04:43:16;;;;;;;17.27;3.80;;;1.80;99.90;;;;;;5069595;28;20600;-67
2024/01/27 04:45:41;;;;;;;18.52;3.22;;;1.80;99.90;;;;;;5069716;28;20040;-67
2024/01/27 04:48:08;;;;;;;23.63;3.78;;;1.80;99.90;;;;;;5067096;28;20044;-67
2024/01/27 04:50:33;;;;;;;25.05;4.03;;;1.80;99.90;;;;;;5065248;28;20615;-67
2024/01/27 04:52:59;;;;;;;17.30;4.18;;;1.80;99.90;;;;;;5068163;28;20032;-68
2024/01/27 04:55:24;;;;;;;21.25;3.60;;;1.80;99.90;;;;;;5066836;28;20051;-67
2024/01/27 04:57:50;;;;;;;18.73;3.65;;;1.70;99.90;;;;;;5068300;28;20043;-67
2024/01/27 05:00:16;;;;;;;14.95;4.53;;;1.70;99.90;;;;;;5066580;28;20098;-67
2024/01/27 05:02:42;;;;;;;17.55;3.67;;;1.70;99.90;;;;;;5068811;28;20040;-67
2024/01/27 05:05:08;;;;;;;22.52;4.07;;;1.70;99.90;;;;;;5063867;28;20102;-67
2024/01/27 05:07:34;;;;;;;20.00;3.33;;;1.70;99.90;;;;;;5068716;28;20131;-68
2024/01/27 05:10:00;;;;;;;10.43;2.97;;;1.60;99.90;;;;;;5066291;28;20516;-67
2024/01/27 05:12:25;;;;;;;11.23;2.88;;;1.60;99.90;;;;;;5067051;28;20040;-66
2024/01/27 05:14:51;;;;;;;18.85;3.65;;;1.60;99.90;;;;;;5067860;28;21314;-65
2024/01/27 05:17:16;;;;;;;16.35;4.55;;;1.60;99.90;;;;;;5067318;28;20083;-66
2024/01/27 05:19:42;;;;;;;23.92;4.97;;;1.50;99.90;;;;;;5067581;28;20039;-66
2024/01/27 05:22:07;;;;;;;14.00;3.47;;;1.50;99.90;;;;;;5067495;28;20038;-66
2024/01/27 05:24:33;;;;;;;18.88;3.28;;;1.50;99.90;;;;;;5067659;28;20132;-66
2024/01/27 05:26:59;;;;;;;18.58;3.67;;;1.50;99.90;;;;;;5067603;28;20045;-66
2024/01/27 05:29:27;;;;;;;26.85;4.72;;;1.50;99.90;;;;;;5066675;28;20048;-67
2024/01/27 05:31:52;;;;;;;22.17;3.85;;;1.50;99.90;;;;;;5061273;28;20476;-67
2024/01/27 05:34:18;;;;;;;15.45;3.47;;;1.50;99.90;;;;;;5068146;28;20032;-65
2024/01/27 05:36:44;;;;;;;30.58;4.53;;;1.50;99.90;;;;;;5065752;28;20044;-66
2024/01/27 05:39:09;;;;;;;29.83;3.70;;;1.50;99.90;;;;;;5068157;28;20781;-66
2024/01/27 05:41:35;;;;;;;27.73;4.68;;;1.60;99.90;;;;;;5067797;28;20045;-65
2024/01/27 05:44:00;;;;;;;17.98;3.97;;;1.50;99.90;;;;;;5067617;28;20028;-65
2024/01/27 05:46:26;;;;;;;16.55;4.53;;;1.50;99.90;;;;;;5066165;28;20064;-66
2024/01/27 05:48:53;;;;;;;29.38;5.15;;;1.50;99.90;;;;;;5066112;28;20094;-66
2024/01/27 05:51:23;;;;;;;26.15;4.70;;;1.40;99.90;;;;;;5067971;28;20039;-65
2024/01/27 05:53:49;;;;;;;10.60;3.97;;;1.40;99.90;;;;;;5066579;28;20520;-66
2024/01/27 05:56:17;;;;;;;22.70;4.80;;;1.40;99.90;;;;;;5066586;28;20049;-65
2024/01/27 05:58:42;;;;;;;15.35;4.40;;;1.40;99.90;;;;;;5066472;28;20048;-66
2024/01/27 06:01:09;;;;;;;21.58;4.68;;;1.30;99.90;;;;;;5065768;28;20105;-65
2024/01/27 06:03:35;;;;;;;20.08;4.32;;;1.40;99.90;;;;;;5066661;28;20508;-66
2024/01/27 06:06:01;;;;;;;19.98;4.30;;;1.40;99.90;;;;;;5067647;28;20048;-66
2024/01/27 06:08:26;;;;;;;22.00;4.20;;;1.40;99.90;;;;;;5067090;28;20415;-65
2024/01/27 06:10:52;;;;;;;19.90;3.88;;;1.40;99.90;;;;;;5074967;28;20036;-66
2024/01/27 06:13:18;;;;;;;15.88;3.67;;;1.40;99.90;;;;;;5065232;28;20085;-66
2024/01/27 06:15:43;;;;;;;28.00;3.97;;;1.40;99.90;;;;;;5061047;28;20151;-65
2024/01/27 06:18:09;;;;;;;21.17;4.95;;;1.30;99.90;;;;;;5067251;28;20553;-66
2024/01/27 06:20:34;;;;;;;24.13;4.43;;;1.30;99.90;;;;;;5062181;28;20041;-66
2024/01/27 06:23:00;;;;;;;21.75;3.45;;;1.30;99.90;;;;;;5058101;28;20040;-66
2024/01/27 06:25:25;;;;;;;21.40;4.18;;;1.20;99.90;;;;;;5066989;28;20573;-65
2024/01/27 06:27:51;;;;;;;25.60;4.03;;;1.20;99.90;;;;;;5062094;28;20032;-65
2024/01/27 06:30:18;;;;;;;14.88;3.22;;;1.20;99.90;;;;;;5061072;28;20448;-66
2024/01/27 06:32:43;;;;;;;18.98;4.00;;;1.10;99.90;;;;;;5064051;28;20032;-65
2024/01/27 06:35:09;;;;;;;27.10;4.00;;;1.10;99.90;;;;;;5067100;28;20519;-66
2024/01/27 06:37:35;;;;;;;18.27;4.18;;;1.10;99.90;;;;;;5066054;28;20040;-65
2024/01/27 06:40:01;;;;;;;19.15;3.85;;;1.10;99.90;;;;;;5067912;28;20047;-65
2024/01/27 06:42:26;;;;;;;23.13;4.53;;;1.00;99.90;;;;;;5065620;28;20047;-65
2024/01/27 06:44:52;;;;;;;21.40;3.55;;;1.00;99.90;;;;;;5067742;28;20075;-65
2024/01/27 06:47:17;;;;;;;20.50;4.10;;;1.00;99.90;;;;;;5066002;28;20055;-65
2024/01/27 06:49:43;;;;;;;21.15;4.38;;;1.00;99.90;;;;;;5065017;28;20119;-65
2024/01/27 06:52:08;;;;;;;19.95;3.70;;;1.10;99.90;;;;;;5061761;28;20036;-64
2024/01/27 06:54:36;;;;;;;20.40;3.45;;;1.10;99.90;;;;;;5066759;28;20561;-66
2024/01/27 06:57:02;;;;;;;18.35;4.05;;;1.00;99.90;;;;;;5061257;28;20214;-65
2024/01/27 06:59:27;;;;;;;18.77;3.40;;;1.00;99.90;;;;;;5052708;28;20668;-66
2024/01/27 07:01:53;;;;;;;21.88;3.53;;;1.00;99.90;;;;;;5057941;28;20195;-65
2024/01/27 07:04:18;;;;;;;21.45;3.33;;;1.00;99.90;;;;;;5072711;28;20510;-67
2024/01/27 07:06:44;;;;;;;27.75;4.57;;;1.00;99.90;;;;;;5060467;28;20067;-66
2024/01/27 07:09:10;;;;;;;26.33;4.45;;;1.10;99.90;;;;;;5066676;28;20435;-65
2024/01/27 07:11:36;;;;;;;25.30;4.22;;;1.00;99.90;;;;;;5063175;28;20690;-66
2024/01/27 07:14:03;;;;;;;24.05;4.47;;;1.00;99.90;;;;;;5065739;28;20045;-66
2024/01/27 07:16:28;;;;;;;23.48;4.95;;;1.10;99.90;;;;;;5066311;28;20520;-67
2024/01/27 07:18:54;;;;;;;21.10;4.85;;;1.00;99.90;;;;;;5067275;28;20107;-65
2024/01/27 07:21:20;;;;;;;26.92;5.95;;;1.10;99.90;;;;;;5070567;28;20086;-66
2024/01/27 07:23:45;;;;;;;17.98;4.03;;;1.10;99.90;;;;;;5063730;28;20044;-66
2024/01/27 07:26:11;;;;;;;30.83;5.75;;;1.10;99.90;;;;;;5060540;28;21229;-70
2024/01/27 07:28:37;;;;;;;16.35;4.78;;;1.10;99.90;;;;;;5066130;28;20124;-68
2024/01/27 07:31:03;;;;;;;29.35;4.88;;;1.10;99.90;;;;;;5069038;28;20415;-66
2024/01/27 07:33:29;;;;;;;24.67;5.32;;;1.10;99.90;;;;;;5070110;28;20044;-66
2024/01/27 07:35:55;;;;;;;27.52;5.15;;;1.10;99.90;;;;;;5069801;28;20564;-67
2024/01/27 07:38:20;;;;;;;22.90;5.53;;;1.10;99.90;;;;;;5069683;28;20028;-66
2024/01/27 07:40:46;;;;;;;25.30;4.30;;;1.10;99.90;;;;;;5064910;28;20423;-66
2024/01/27 07:43:12;;;;;;;21.65;5.25;;;1.10;99.90;;;;;;5069941;28;20033;-66
2024/01/27 07:45:37;;;;;;;22.08;4.43;;;1.10;99.90;;;;;;5076625;28;20064;-67
2024/01/27 07:48:03;;;;;;;32.58;5.78;;;1.20;99.90;;;;;;5070081;28;20846;-66
2024/01/27 07:50:29;;;;;;;19.10;4.38;;;1.20;99.90;;;;;;5078627;28;20123;-68
2024/01/27 07:52:54;;;;;;;29.42;5.85;;;1.20;99.90;;;;;;5071021;28;20119;-67
2024/01/27 07:55:20;;;;;;;32.70;5.25;;;1.20;99.90;;;;;;5076409;28;20036;-66
2024/01/27 07:57:45;;;;;;;18.77;5.10;;;1.20;99.90;;;;;;5068823;28;20642;-66
2024/01/27 08:00:12;;;;;;;17.42;5.32;;;1.20;99.90;;;;;;5075196;28;20024;-67
2024/01/27 08:02:37;;;;;;;27.15;5.43;;;1.20;99.90;;;;;;5071204;28;20040;-67
2024/01/27 08:05:03;;;;;;;17.80;4.10;;;1.30;99.90;;;;;;5082166;28;20525;-68
2024/01/27 08:07:29;;;;;;;21.20;5.82;;;1.30;99.90;;;;;;5070183;28;20055;-67
2024/01/27 08:09:56;;;;;;;18.17;4.15;;;1.30;99.90;;;;;;5075083;28;20044;-67
2024/01/27 08:12:22;;;;;;;16.95;4.20;;;1.30;99.90;;;;;;5066576;28;20052;-67
2024/01/27 08:14:48;;;;;;;18.27;3.90;;;1.40;99.90;;;;;;5070043;28;20041;-67
2024/01/27 08:17:14;;;;;;;26.38;5.18;;;1.40;99.90;;;;;;5070717;28;20079;-66
2024/01/27 08:19:39;;;;;;;18.13;4.25;;;1.50;99.90;;;;;;5074321;28;20128;-67
2024/01/27 08:22:05;;;;;;;31.00;4.90;;;1.60;99.90;;;;;;5080291;28;20044;-67
2024/01/27 08:24:31;;;;;;;19.13;4.78;;;1.70;99.90;;;;;;5075348;28;20045;-67
2024/01/27 08:26:57;;;;;;;18.67;4.65;;;1.80;99.90;;;;;;5074559;28;20045;-68
2024/01/27 08:29:23;;;;;;;39.05;4.90;;;1.80;99.90;;;;;;5069525;28;20642;-66
2024/01/27 08:31:49;;;;;;;15.52;4.15;;;1.90;99.90;;;;;;5074258;28;20047;-67
2024/01/27 08:34:14;;;;;;;20.83;3.97;;;2.00;99.90;;;;;;5069452;28;20098;-67
2024/01/27 08:36:40;;;;;;;15.23;3.78;;;2.10;99.90;;;;;;5060476;28;20511;-67
2024/01/27 08:39:07;;;;;;;20.27;4.13;;;2.20;99.90;;;;;;5066346;28;20135;-66
2024/01/27 08:41:33;;;;;;;19.70;5.03;;;2.30;99.90;;;;;;5065622;28;20055;-66
2024/01/27 08:43:59;;;;;;;20.85;4.53;;;2.30;99.90;;;;;;5067790;28;20041;-68
2024/01/27 08:46:25;;;;;;;20.02;3.88;;;2.30;99.90;;;;;;5068122;28;20093;-68
2024/01/27 08:48:51;;;;;;;17.17;3.50;;;2.40;99.90;;;;;;5061632;28;20125;-67
2024/01/27 08:51:17;;;;;;;24.23;4.90;;;2.40;99.90;;;;;;5067655;28;20052;-67
2024/01/27 08:53:48;;;;;;;16.15;4.25;;;2.50;99.90;;;;;;5065824;28;20041;-69
2024/01/27 08:56:17;;;;;;;17.67;3.97;;;2.60;99.90;;;;;;5071589;28;20044;-70
2024/01/27 08:58:49;;;;;;;23.95;3.92;;;2.70;99.90;;;;;;5070112;28;20033;-66
2024/01/27 09:01:18;;;;;;;17.70;3.42;;;2.70;99.90;;;;;;5067381;28;20032;-70
2024/01/27 09:03:44;;;;;;;22.05;4.68;;;2.90;99.90;;;;;;5066764;28;20043;-69
2024/01/27 09:06:10;;;;;;;17.15;3.40;;;2.90;99.90;;;;;;5068588;28;20036;-69
2024/01/27 09:08:36;;;;;;;20.70;3.63;;;3.00;99.90;;;;;;5068053;28;20572;-65
2024/01/27 09:11:02;;;;;;;19.48;3.92;;;3.10;99.90;;;;;;5073570;28;20085;-66
2024/01/27 09:13:28;;;;;;;29.17;3.40;;;3.10;99.90;;;;;;5068331;28;20048;-66
2024/01/27 09:15:54;;;;;;;17.90;3.83;;;3.20;99.90;;;;;;5065568;28;20059;-66
2024/01/27 09:18:20;;;;;;;16.65;3.28;;;3.30;99.90;;;;;;5062327;28;20043;-66
2024/01/27 09:20:46;;;;;;;23.60;4.45;;;3.40;99.90;;;;;;5072558;28;20036;-67
2024/01/27 09:23:11;;;;;;;21.25;3.67;;;3.40;99.90;;;;;;5067873;28;20036;-67
2024/01/27 09:25:37;;;;;;;17.20;3.30;;;3.50;99.90;;;;;;5073480;28;20047;-66
2024/01/27 09:28:03;;;;;;;17.85;3.78;;;3.60;99.90;;;;;;5063159;28;20049;-68
2024/01/27 09:30:28;;;;;;;30.50;3.78;;;3.70;99.90;;;;;;5064357;28;20040;-68
2024/01/27 09:32:54;;;;;;;25.55;3.95;;;3.70;99.90;;;;;;5058965;28;20037;-67
2024/01/27 09:35:21;;;;;;;13.55;3.17;;;3.80;99.90;;;;;;5057542;28;20500;-67
2024/01/27 09:38:12;;;;;;;21.48;3.60;;;3.90;99.90;;;;;;5056891;28;20125;-70
2024/01/27 09:40:52;;;;;;;19.98;5.07;;;4.00;99.90;;;;;;5059736;28;20041;-67
2024/01/27 09:43:49;;;;;;;16.25;3.60;;;4.10;99.90;;;;;;5076511;28;20064;-69
2024/01/27 09:46:29;;;;;;;24.63;5.40;;;4.10;99.90;;;;;;4124459;28;10000625;-68
2024/01/27 09:49:32;;;;;;;19.58;4.25;;;4.20;99.90;;;;;;5074845;28;20044;-70
2024/01/27 09:52:51;;;;;;;17.83;3.58;;;4.30;99.90;;;;;;5081101;28;20146;-70
2024/01/27 09:55:24;;;;;;;16.48;3.13;;;4.30;99.90;;;;;;5076668;28;20119;-69
2024/01/27 09:57:52;;;;;;;18.83;3.10;;;4.40;99.90;;;;;;5071589;28;20098;-68
2024/01/27 10:00:56;;;;;;;;;;;;;;;;;;;;;
2024/01/27 10:03:49;;;;;;;23.42;3.97;;;4.60;99.90;;;;;;5052360;28;20114;-68
2024/01/27 10:06:15;;;;;;;19.48;3.90;;;4.60;99.90;;;;;;5071641;28;20709;-65
2024/01/27 10:08:41;;;;;;;20.20;3.88;;;4.60;99.90;;;;;;5079620;28;20044;-66
2024/01/27 10:11:08;;;;;;;11.40;2.70;;;4.70;99.90;;;;;;5075050;28;20040;-67
2024/01/27 10:13:35;;;;;;;24.55;4.22;;;4.70;99.90;;;;;;5075466;28;20115;-66
2024/01/27 10:16:02;;;;;;;23.30;4.07;;;4.80;99.90;;;;;;5079643;28;20044;-67
2024/01/27 10:18:29;;;;;;;23.02;4.13;;;4.80;99.90;;;;;;5077661;28;20043;-66
2024/01/27 10:20:54;;;;;;;21.67;3.38;;;4.90;99.90;;;;;;5075734;28;20032;-67
2024/01/27 10:23:20;;;;;;;18.27;3.30;;;4.90;99.90;;;;;;5078685;28;20575;-66
2024/01/27 10:25:45;;;;;;;20.35;3.60;;;4.90;99.90;;;;;;5081246;28;20036;-67
2024/01/27 10:28:11;;;;;;;15.63;3.70;;;5.00;99.90;;;;;;5077561;28;20096;-67
2024/01/27 10:30:37;;;;;;;23.73;3.78;;;5.00;99.90;;;;;;5081046;28;20120;-68
2024/01/27 10:33:03;;;;;;;24.60;3.88;;;5.10;99.90;;;;;;5076306;28;20086;-66
2024/01/27 10:35:41;;;;;;;13.98;3.80;;;5.20;99.90;;;;;;5075264;28;20040;-67
2024/01/27 10:38:21;;;;;;;16.42;3.10;;;5.20;99.90;;;;;;5068224;28;20063;-67
2024/01/27 10:40:50;;;;;;;21.40;4.03;;;5.30;99.90;;;;;;5072955;28;20040;-67
2024/01/27 10:43:17;;;;;;;11.82;2.97;;;5.30;99.90;;;;;;5071230;28;20032;-67
2024/01/27 10:45:44;;;;;;;18.13;3.67;;;5.30;99.90;;;;;;5082270;28;20158;-67
2024/01/27 10:48:11;;;;;;;15.10;2.92;;;5.40;99.90;;;;;;5076519;28;20039;-67
2024/01/27 10:50:39;;;;;;;20.58;3.28;;;5.40;99.90;;;;;;5078984;28;20040;-67
2024/01/27 10:53:09;;;;;;;16.73;3.78;;;5.50;99.90;;;;;;5079220;28;20144;-67
2024/01/27 10:55:35;;;;;;;18.45;3.28;;;5.50;99.90;;;;;;5080527;28;20149;-67
2024/01/27 10:58:02;;;;;;;14.75;3.65;;;5.50;99.90;;;;;;5077440;28;20036;-66
2024/01/27 11:00:30;;;;;;;32.17;3.03;;;5.60;99.90;;;;;;5080122;28;20102;-65
2024/01/27 11:03:02;;;;;;;14.95;4.05;;;5.60;99.90;;;;;;5077646;28;20565;-67
2024/01/27 11:05:31;;;;;;;11.55;2.67;;;5.70;99.90;;;;;;5082105;28;20051;-66
2024/01/27 11:07:59;;;;;;;12.63;2.53;;;5.80;99.90;;;;;;5079809;28;20051;-68
2024/01/27 11:10:25;;;;;;;17.55;3.20;;;5.80;99.90;;;;;;5079357;28;20047;-67
2024/01/27 11:12:52;;;;;;;17.90;3.42;;;5.80;99.90;;;;;;5078196;28;20039;-70
2024/01/27 11:15:18;;;;;;;12.00;2.65;;;5.80;99.90;;;;;;5078490;28;20037;-67
2024/01/27 11:17:45;;;;;;;14.45;2.72;;;5.80;99.90;;;;;;5083777;28;20692;-68
2024/01/27 11:20:11;;;;;;;13.77;2.72;;;5.80;99.90;;;;;;5082553;28;20040;-68
2024/01/27 11:22:37;;;;;;;17.17;2.95;;;5.90;99.90;;;;;;5078336;28;20028;-68
2024/01/27 11:25:12;;;;;;;15.32;2.60;;;5.90;99.90;;;;;;5082150;28;20042;-68
2024/01/27 11:27:41;;;;;;;17.27;3.35;;;5.90;99.90;;;;;;5070807;28;20081;-66
2024/01/27 11:30:33;;;;;;;17.55;2.72;;;6.00;99.90;;;;;;5081382;28;20036;-69
2024/01/27 11:33:01;;;;;;;20.73;3.08;;;6.00;99.90;;;;;;5074634;28;20052;-68
2024/01/27 11:35:27;;;;;;;13.40;2.40;;;6.10;99.90;;;;;;5076455;28;20051;-67
2024/01/27 11:37:54;;;;;;;17.98;2.45;;;6.10;99.90;;;;;;5076682;28;20045;-67
2024/01/27 11:40:19;;;;;;;12.00;2.65;;;6.10;99.90;;;;;;5074922;28;20048;-68
2024/01/27 11:43:05;;;;;;;11.75;2.70;;;6.10;99.90;;;;;;5078049;28;20034;-68
2024/01/27 11:45:32;;;;;;;13.73;2.55;;;6.10;99.90;;;;;;5079491;28;20717;-69
2024/01/27 11:47:59;;;;;;;8.65;2.20;;;6.20;99.90;;;;;;5083257;22;20056;-64
2024/01/27 11:50:25;;;;;;;17.42;2.78;;;6.10;99.90;;;;;;5079738;28;20067;-65
2024/01/27 11:52:51;;;;;;;11.45;2.67;;;6.10;99.90;;;;;;5083531;28;20039;-66
2024/01/27 11:55:18;;;;;;;15.15;2.78;;;6.10;99.90;;;;;;5083048;28;20051;-65
2024/01/27 11:57:45;;;;;;;20.17;2.75;;;6.10;99.90;;;;;;5081120;28;20407;-66
2024/01/27 12:00:10;;;;;;;12.82;2.42;;;6.10;99.90;;;;;;5086130;28;20062;-64
2024/01/27 12:02:37;;;;;;;8.65;1.95;;;6.10;99.90;;;;;;5082834;28;20844;-66
2024/01/27 12:05:04;;;;;;;9.80;2.67;;;6.10;99.90;;;;;;5086412;28;20040;-65
2024/01/27 12:07:31;;;;;;;12.90;2.80;;;6.10;99.90;;;;;;5084698;28;20052;-64
2024/01/27 12:09:56;;;;;;;10.52;2.33;;;6.10;99.90;;;;;;5085646;28;20101;-65
2024/01/27 12:12:22;;;;;;;11.93;2.95;;;6.10;99.90;;;;;;5085215;28;20689;-67
2024/01/27 12:14:49;;;;;;;;;;;6.10;99.90;;;;;;5090145;28;20106;-66
2024/01/27 12:17:15;;;;;;;11.20;1.90;;;6.20;99.90;;;;;;5090599;28;19922;-64
2024/01/27 12:19:53;;;;;;;13.02;2.25;;;6.20;99.90;;;;;;5091780;28;20059;-65
2024/01/27 12:22:26;;;;;;;10.68;2.40;;;6.20;99.90;;;;;;5090436;28;20048;-66
2024/01/27 12:24:52;;;;;;;9.57;2.40;;;6.30;99.90;;;;;;5089603;28;20513;-65
2024/01/27 12:27:17;;;;;;;15.43;2.30;;;6.30;99.90;;;;;;5089380;28;20430;-68
2024/01/27 12:29:43;;;;;;;14.23;2.75;;;6.30;99.90;;;;;;5089153;28;20048;-66
2024/01/27 12:32:09;;;;;;;10.35;2.20;;;6.30;99.90;;;;;;5088991;28;20040;-67
2024/01/27 12:34:40;;;;;;;10.45;1.92;;;6.30;99.90;;;;;;5089494;28;20046;-68
2024/01/27 12:37:08;;;;;;;14.30;2.45;;;6.30;99.90;;;;;;5087442;28;20070;-68
2024/01/27 12:39:33;;;;;;;16.35;3.58;;;6.30;99.90;;;;;;5087471;28;20445;-66
2024/01/27 12:41:59;;;;;;;12.57;2.30;;;6.30;99.90;;;;;;5086290;28;20043;-66
2024/01/27 12:44:24;;;;;;;;;;;6.20;99.90;;;;;;5087947;28;20043;-66
2024/01/27 12:46:50;;;;;;;11.73;3.47;;;6.30;99.90;;;;;;5083884;28;19916;-65